Mali Losinj, Croatia
Current Conditions -  °F | °C
As of 12:00 PM on Saturday 29 Nov 2014 (Local Time) from LDPL Reporting Station
Broken Clouds Broken Clouds  
Wind Chill: 61°   Ceiling: 4500
Heat Index: 61°   Visibility: 4mi
Dew Point: 57°   Wind: 6mph
Humidity: 88%   Direction: 100°E
Pressure: 29.94"   Gusts: NA
Location:  44.53°N, 14.47°E
Report Text: LDPL 291000Z 10005KT 070V140 7000 FEW006 BKN045 16/14 Q1014 NOSIG
Loading
Personal Weather Stations






























Interactive Weather Map New forecast layout! Learn more

10-Day Weather Forecast

Advertisements
Track Severe Weather on mobile